»·PEaware :: FFT2122 KSNA-KLAS

FFT2122 :: KSNA-KLAS

FLIGHT INFORMATION

Flight Status: Arrived
Operator:
Frontier Airlines
More flights by this operator :: More flights under this callsign
Pilot: Hayden Y. (1870)
Aircraft: AIRBUS A320
(A320)
More flights by this aircraft type
Origin: KSNA John Wayne-Orange Co
United States
Destination: KLAS McCarran Intl
United States
More flights between these airports :: More routes between these airports
Route: FINZZ2 MISEN KEPEC6
File this flight plan on PilotEdge
Remarks:
Altitude:
(Current/Filed)
33,000ft
Speed:
(Current/Filed)
427kts
Departed: 13-May-20 08:25 AM
Arrived: 13-May-20 09:12 AM
Distance/Time
Traveled:
197nm/0:47
Distance/Time
To Go:
Arrived

Flight Plot

Page will automatically refresh every two minutes.

Flight plan parsing failed; only flown route is shown


Map Options




Map Legend


Flown Route
Filed Route
Departure Airport
Arrival Airport
Navaid (VOR, NDB)
Fix

Horizontal Profiles

Position Reports

Time Latitude Longitude Heading Altitude Ground
Speed
13-May-20 07:43 33.676018 -117.863795 117 70ft 0kts
13-May-20 07:44 33.676018 -117.863795 117 70ft 0kts
13-May-20 07:45 33.676018 -117.863795 117 70ft 0kts
13-May-20 07:46 33.676018 -117.863795 117 70ft 0kts
13-May-20 07:47 33.676018 -117.863795 117 70ft 0kts
13-May-20 07:48 33.676018 -117.863795 117 70ft 0kts
13-May-20 07:49 33.676018 -117.863795 117 70ft 0kts
13-May-20 07:50 33.676018 -117.863795 117 70ft 0kts
13-May-20 07:51 33.676018 -117.863795 117 70ft 0kts
13-May-20 07:52 33.676018 -117.863795 117 70ft 0kts
13-May-20 07:53 33.676018 -117.863795 117 70ft 0kts
13-May-20 07:54 33.676018 -117.863795 117 70ft 0kts
13-May-20 07:55 33.676018 -117.863795 117 70ft 0kts
13-May-20 07:56 33.676018 -117.863795 117 70ft 0kts
13-May-20 07:57 33.676018 -117.863795 117 70ft 0kts
13-May-20 07:58 33.676018 -117.863795 117 70ft 0kts
13-May-20 07:59 33.676018 -117.863795 117 70ft 0kts
13-May-20 08:00 33.676018 -117.863795 117 70ft 0kts
13-May-20 08:01 33.676018 -117.863795 117 70ft 0kts
13-May-20 08:02 33.676018 -117.863795 117 70ft 0kts
13-May-20 08:03 33.676018 -117.863795 117 70ft 0kts
13-May-20 08:04 33.676018 -117.863795 117 70ft 0kts
13-May-20 08:05 33.676018 -117.863795 117 70ft 0kts
13-May-20 08:06 33.676018 -117.863795 117 70ft 0kts
13-May-20 08:07 33.676018 -117.863795 117 70ft 0kts
13-May-20 08:08 33.676018 -117.863795 117 70ft 0kts
13-May-20 08:09 33.676018 -117.863795 117 70ft 0kts
13-May-20 08:10 33.676018 -117.863795 117 70ft 0kts
13-May-20 08:11 33.676018 -117.863795 117 70ft 0kts
13-May-20 08:12 33.676018 -117.863795 117 70ft 0kts
13-May-20 08:13 33.676018 -117.863795 117 70ft 0kts
13-May-20 08:14 33.676143 -117.864089 115 70ft 2kts
13-May-20 08:15 33.676300 -117.864966 35 70ft 2kts
13-May-20 08:16 33.676111 -117.865093 27 70ft 0kts
13-May-20 08:17 33.676111 -117.865093 27 70ft 0kts
13-May-20 08:18 33.676111 -117.865093 27 70ft 0kts
13-May-20 08:19 33.677593 -117.864202 26 70ft 12kts
13-May-20 08:20 33.680431 -117.862614 298 70ft 7kts
13-May-20 08:21 33.680522 -117.862870 292 70ft 0kts
13-May-20 08:22 33.680523 -117.862873 292 70ft 0kts
13-May-20 08:23 33.681423 -117.865094 286 70ft 9kts
13-May-20 08:24 33.665356 -117.875404 207 304ft 162kts
13-May-20 08:25 33.623815 -117.892170 183 3107ft 153kts
13-May-20 08:26 33.571164 -117.901304 203 4361ft 229kts
13-May-20 08:27 33.519043 -117.959064 223 6853ft 272kts
13-May-20 08:28 33.506840 -118.038477 308 9448ft 276kts
13-May-20 08:29 33.564882 -118.106427 323 11696ft 316kts
13-May-20 08:30 33.642530 -118.101742 23 14017ft 352kts
13-May-20 08:31 33.731943 -118.046053 20 16308ft 369kts
13-May-20 08:32 33.825929 -117.992042 21 18395ft 387kts
13-May-20 08:33 33.923216 -117.930514 31 20353ft 406kts
13-May-20 08:34 34.015804 -117.844039 33 21761ft 430kts
13-May-20 08:35 34.109096 -117.750485 46 23380ft 447kts
13-May-20 08:36 34.187301 -117.631154 47 24821ft 458kts
13-May-20 08:37 34.269293 -117.510632 48 26095ft 469kts
13-May-20 08:38 34.352095 -117.386381 47 27273ft 479kts
13-May-20 08:39 34.436493 -117.260046 47 28359ft 488kts
13-May-20 08:40 34.521787 -117.131690 47 29686ft 488kts
13-May-20 08:41 34.608188 -117.004969 46 31008ft 485kts
13-May-20 08:42 34.694255 -116.879274 46 32261ft 483kts
13-May-20 08:43 34.779881 -116.753822 46 32970ft 475kts
13-May-20 08:44 34.866070 -116.632581 35 32926ft 467kts
13-May-20 08:45 34.967706 -116.535412 33 30150ft 471kts
13-May-20 08:46 35.066734 -116.438056 33 28198ft 450kts
13-May-20 08:47 35.157796 -116.335417 42 26048ft 440kts
13-May-20 08:48 35.241314 -116.229497 41 23959ft 425kts
13-May-20 08:49 35.322108 -116.128072 42 21733ft 407kts
13-May-20 08:50 35.399982 -116.029903 42 19263ft 391kts
13-May-20 08:51 35.473860 -115.936376 42 17203ft 368kts
13-May-20 08:52 35.543585 -115.847957 42 15797ft 353kts
13-May-20 08:53 35.610457 -115.762951 42 14444ft 340kts
13-May-20 08:54 35.675213 -115.680322 43 13064ft 327kts
13-May-20 08:55 35.737676 -115.600555 43 13012ft 323kts
13-May-20 08:56 35.817683 -115.570679 356 13035ft 308kts
13-May-20 08:57 35.903777 -115.567503 359 13023ft 309kts
13-May-20 08:58 35.982717 -115.535308 56 12937ft 322kts
13-May-20 08:59 36.012822 -115.431503 68 11345ft 320kts
13-May-20 09:00 36.029369 -115.333441 97 10560ft 287kts
13-May-20 09:01 36.020988 -115.236578 94 9284ft 274kts
13-May-20 09:02 36.014176 -115.145088 95 8477ft 270kts
13-May-20 09:03 36.007711 -115.057725 95 7473ft 241kts
13-May-20 09:04 36.002428 -114.979770 95 6322ft 214kts
13-May-20 09:05 36.013981 -114.915536 28 5097ft 199kts
13-May-20 09:06 36.063889 -114.913006 326 3919ft 184kts
13-May-20 09:07 36.079977 -114.963459 259 3813ft 166kts
13-May-20 09:08 36.073438 -115.020105 263 3699ft 165kts
13-May-20 09:10 36.073631 -115.076278 266 2968ft 157kts
13-May-20 09:11 36.073690 -115.129641 269 2160ft 156kts
13-May-20 09:12 36.074258 -115.149451 297 2129ft 10kts
13-May-20 09:13 36.075929 -115.151687 326 2129ft 20kts
13-May-20 09:14 36.078772 -115.152829 88 2129ft 7kts
13-May-20 09:15 36.078589 -115.148766 95 2129ft 21kts
13-May-20 09:16 36.078265 -115.142418 91 2129ft 16kts
13-May-20 09:17 36.078300 -115.136542 89 2129ft 17kts
13-May-20 09:18 36.079588 -115.134022 36 2129ft 7kts
13-May-20 09:19 36.080043 -115.133854 10 2129ft 10kts
13-May-20 09:20 36.081778 -115.135494 223 2129ft 6kts
13-May-20 09:21 36.081528 -115.135764 221 2129ft 0kts

Navigation Log

Ident Type
Flight plan parsing failed, navigation log unavailable